createdAt,value
2022-08-07T00:02:36.359Z,15.60
2022-08-07T00:07:24.060Z,15.50
2022-08-07T00:12:29.988Z,15.50
2022-08-07T00:17:35.265Z,15.40
2022-08-07T00:22:40.192Z,15.30
2022-08-07T00:27:53.434Z,15.30
2022-08-07T00:33:00.150Z,15.20
2022-08-07T00:38:05.323Z,15.20
2022-08-07T00:43:09.884Z,15.10
2022-08-07T00:48:13.407Z,15.10
2022-08-07T00:53:17.560Z,15.00
2022-08-07T00:58:21.207Z,15.00
2022-08-07T01:03:54.835Z,14.90
2022-08-07T01:08:53.206Z,14.80
2022-08-07T01:13:56.909Z,14.80
2022-08-07T01:19:01.925Z,14.70
2022-08-07T01:24:09.557Z,14.60
2022-08-07T01:29:13.054Z,14.50
2022-08-07T01:34:15.463Z,14.50
2022-08-07T01:39:19.715Z,14.40
2022-08-07T01:44:23.312Z,14.40
2022-08-07T01:49:25.876Z,14.40
2022-08-07T01:54:37.506Z,14.30
2022-08-07T01:59:45.226Z,14.30
2022-08-07T02:04:55.982Z,14.30
2022-08-07T02:10:02.466Z,14.30
2022-08-07T02:15:07.245Z,14.20
2022-08-07T02:20:17.221Z,14.10
2022-08-07T02:25:32.125Z,14.10
2022-08-07T02:30:48.655Z,14.00
2022-08-07T02:36:29.968Z,14.00
2022-08-07T02:41:21.770Z,14.00
2022-08-07T02:46:26.482Z,13.90
2022-08-07T02:51:42.602Z,13.80
2022-08-07T02:56:56.325Z,13.70
2022-08-07T03:02:02.160Z,13.60
2022-08-07T03:07:10.402Z,13.60
2022-08-07T03:12:22.681Z,13.50
2022-08-07T03:17:36.362Z,13.50
2022-08-07T03:22:58.709Z,13.50
2022-08-07T03:28:09.659Z,13.50
2022-08-07T03:33:32.198Z,13.50
2022-08-07T03:38:44.045Z,13.50
2022-08-07T03:43:57.341Z,13.50
2022-08-07T03:49:02.892Z,13.50
2022-08-07T03:54:36.393Z,13.40
2022-08-07T03:59:30.409Z,13.40
2022-08-07T04:04:35.410Z,13.40
2022-08-07T04:09:45.397Z,13.30
2022-08-07T04:14:54.609Z,13.30
2022-08-07T04:19:59.061Z,13.20
2022-08-07T04:25:02.338Z,13.20
2022-08-07T04:30:13.433Z,13.20
2022-08-07T04:35:24.204Z,13.20
2022-08-07T04:40:30.026Z,13.30
2022-08-07T04:45:57.447Z,13.50
2022-08-07T04:51:04.656Z,13.60
2022-08-07T04:58:09.809Z,13.90
2022-08-07T05:01:52.602Z,14.20
2022-08-07T05:07:20.510Z,14.80
2022-08-07T05:12:30.375Z,15.40
2022-08-07T05:17:52.803Z,16.20
2022-08-07T05:23:02.099Z,17.00
2022-08-07T05:28:20.468Z,17.90
2022-08-07T05:33:28.586Z,18.80
2022-08-07T05:39:01.105Z,19.70
2022-08-07T05:44:08.317Z,20.50
2022-08-07T05:49:17.298Z,21.40
2022-08-07T05:54:30.944Z,22.30
2022-08-07T05:59:38.978Z,23.00
2022-08-07T06:05:03.866Z,23.80
2022-08-07T06:10:15.139Z,24.50
2022-08-07T06:15:19.775Z,25.00
2022-08-07T06:20:25.685Z,25.60
2022-08-07T06:25:36.177Z,26.30
2022-08-07T06:30:45.641Z,27.00
2022-08-07T06:36:12.272Z,27.60
2022-08-07T06:41:18.032Z,28.00
2022-08-07T06:46:41.559Z,28.30
2022-08-07T06:51:49.880Z,28.70
2022-08-07T06:56:55.120Z,29.20
2022-08-07T07:01:59.115Z,29.50
2022-08-07T07:07:10.753Z,29.90
2022-08-07T07:12:41.719Z,30.10
2022-08-07T07:17:59.543Z,30.30
2022-08-07T07:24:05.990Z,30.50
2022-08-07T07:28:48.513Z,30.60
2022-08-07T07:34:03.736Z,30.70
2022-08-07T07:39:09.129Z,30.80
2022-08-07T07:44:21.414Z,31.00
2022-08-07T07:50:34.581Z,31.00
2022-08-07T07:54:55.863Z,31.00
2022-08-07T08:00:00.842Z,30.80
2022-08-07T08:05:11.372Z,30.70
2022-08-07T08:10:35.532Z,30.80
2022-08-07T08:15:54.958Z,31.10
2022-08-07T08:21:03.041Z,31.20
2022-08-07T08:26:08.338Z,31.40
2022-08-07T08:31:18.326Z,31.70
2022-08-07T08:36:34.618Z,32.00
2022-08-07T08:41:58.667Z,32.20
2022-08-07T08:47:09.772Z,32.60
2022-08-07T08:52:17.077Z,33.10
2022-08-07T08:57:30.387Z,33.30
2022-08-07T09:02:49.639Z,33.30
2022-08-07T09:08:04.897Z,33.50
2022-08-07T09:13:14.792Z,33.50
2022-08-07T09:18:33.537Z,33.50
2022-08-07T09:24:28.933Z,33.30
2022-08-07T09:30:05.532Z,33.30
2022-08-07T09:34:59.022Z,33.60
2022-08-07T09:40:17.898Z,34.20
2022-08-07T09:47:20.037Z,34.50
2022-08-07T09:52:15.901Z,34.70
2022-08-07T09:57:36.751Z,35.00
2022-08-07T10:04:04.703Z,35.50
2022-08-07T10:09:15.442Z,35.60
2022-08-07T10:14:38.784Z,35.30
2022-08-07T10:20:03.610Z,35.40
2022-08-07T10:25:22.553Z,35.60
2022-08-07T10:30:34.045Z,35.60
2022-08-07T10:36:05.515Z,35.80
2022-08-07T10:41:46.588Z,36.10
2022-08-07T10:47:00.145Z,36.10
2022-08-07T10:52:13.810Z,36.00
2022-08-07T10:57:34.684Z,36.00
2022-08-07T11:02:49.108Z,36.00
2022-08-07T11:08:04.968Z,36.10
2022-08-07T11:14:42.200Z,36.20
2022-08-07T11:18:50.904Z,36.20
2022-08-07T11:24:04.235Z,36.00
2022-08-07T11:29:13.095Z,36.00
2022-08-07T11:34:42.408Z,35.90
2022-08-07T11:40:03.926Z,35.50
2022-08-07T11:45:20.446Z,35.00
2022-08-07T11:50:33.571Z,34.90
2022-08-07T11:56:25.585Z,34.80
2022-08-07T12:01:58.734Z,34.70
2022-08-07T12:07:09.080Z,34.50
2022-08-07T12:12:30.795Z,34.50
2022-08-07T12:17:55.978Z,34.40
2022-08-07T12:23:17.967Z,34.30
2022-08-07T12:28:52.879Z,34.00
2022-08-07T12:34:01.954Z,33.50
2022-08-07T12:39:42.143Z,33.20
2022-08-07T12:44:33.684Z,32.90
2022-08-07T12:49:51.382Z,32.60
2022-08-07T12:55:09.317Z,32.30
2022-08-07T13:00:20.721Z,32.10
2022-08-07T13:06:03.480Z,32.00
2022-08-07T13:11:24.108Z,31.90
2022-08-07T13:16:36.529Z,31.80
2022-08-07T13:21:57.378Z,31.90
2022-08-07T13:27:12.728Z,31.90
2022-08-07T13:32:32.950Z,31.90
2022-08-07T13:37:49.819Z,31.70
2022-08-07T13:43:05.548Z,31.50
2022-08-07T13:48:27.767Z,31.50
2022-08-07T13:53:59.455Z,31.50
2022-08-07T13:59:12.066Z,31.30
2022-08-07T14:04:21.460Z,31.20
2022-08-07T14:10:01.325Z,31.10
2022-08-07T14:14:56.127Z,31.20
2022-08-07T14:20:40.107Z,31.10
2022-08-07T14:25:39.582Z,30.90
2022-08-07T14:30:51.927Z,30.90
2022-08-07T14:35:59.331Z,30.90
2022-08-07T14:41:05.479Z,31.00
2022-08-07T14:46:22.635Z,31.00
2022-08-07T14:52:04.440Z,31.10
2022-08-07T14:57:00.472Z,31.20
2022-08-07T15:02:32.980Z,31.10
2022-08-07T15:07:51.240Z,31.00
2022-08-07T15:12:58.796Z,30.80
2022-08-07T15:18:05.991Z,30.70
2022-08-07T15:25:04.082Z,30.70
2022-08-07T15:30:08.461Z,30.80
2022-08-07T15:34:22.663Z,30.90
2022-08-07T15:39:59.105Z,31.00
2022-08-07T15:45:04.922Z,31.10
2022-08-07T15:51:01.688Z,31.00
2022-08-07T15:55:58.627Z,31.00
2022-08-07T16:01:13.575Z,30.90
2022-08-07T16:06:29.831Z,30.80
2022-08-07T16:12:03.409Z,30.60
2022-08-07T16:18:01.788Z,30.40
2022-08-07T16:23:54.186Z,30.10
2022-08-07T16:30:06.977Z,29.80
2022-08-07T16:34:40.294Z,29.60
2022-08-07T16:40:09.517Z,29.40
2022-08-07T16:46:47.285Z,29.10
2022-08-07T16:51:52.137Z,28.90
2022-08-07T16:56:53.242Z,28.70
2022-08-07T17:02:05.847Z,28.50
2022-08-07T17:07:28.116Z,28.40
2022-08-07T17:12:47.766Z,28.30
2022-08-07T17:18:10.461Z,28.10
2022-08-07T17:23:40.458Z,28.00
2022-08-07T17:28:59.763Z,27.90
2022-08-07T17:34:34.700Z,27.70
2022-08-07T17:39:57.951Z,27.50
2022-08-07T17:45:14.988Z,27.30
2022-08-07T17:50:30.466Z,27.10
2022-08-07T17:56:00.819Z,26.80
2022-08-07T18:01:18.056Z,26.50
2022-08-07T18:06:36.861Z,26.30
2022-08-07T18:12:16.823Z,26.00
2022-08-07T18:18:46.069Z,25.80
2022-08-07T18:23:04.670Z,25.70
2022-08-07T18:28:35.283Z,25.60
2022-08-07T18:33:58.274Z,25.50
2022-08-07T18:40:07.244Z,25.50
2022-08-07T18:45:43.814Z,25.40
2022-08-07T18:50:57.766Z,25.40
2022-08-07T18:56:14.432Z,25.30
2022-08-07T19:02:19.070Z,25.10
2022-08-07T19:06:55.144Z,24.90
2022-08-07T19:12:15.133Z,24.80
2022-08-07T19:17:59.401Z,24.50
2022-08-07T19:23:17.838Z,24.40
2022-08-07T19:29:02.825Z,24.30
2022-08-07T19:33:58.399Z,24.10
2022-08-07T19:39:09.170Z,23.90
2022-08-07T19:44:21.826Z,23.80
2022-08-07T19:49:58.102Z,23.70
2022-08-07T19:54:56.516Z,23.60
2022-08-07T20:00:09.002Z,23.50
2022-08-07T20:05:16.537Z,23.30
2022-08-07T20:10:37.234Z,23.10
2022-08-07T20:15:57.824Z,23.00
2022-08-07T20:21:02.635Z,22.80
2022-08-07T20:26:10.151Z,22.50
2022-08-07T20:31:21.297Z,22.30
2022-08-07T20:36:29.055Z,22.10
2022-08-07T20:41:38.493Z,21.90
2022-08-07T20:46:46.715Z,21.80
2022-08-07T20:52:14.267Z,21.60
2022-08-07T20:57:24.069Z,21.50
2022-08-07T21:02:31.255Z,21.30
2022-08-07T21:07:35.555Z,21.20
2022-08-07T21:12:38.778Z,21.10
2022-08-07T21:18:03.625Z,21.00
2022-08-07T21:23:21.475Z,20.80
2022-08-07T21:28:48.112Z,20.70
2022-08-07T21:34:10.179Z,20.70
2022-08-07T21:39:46.202Z,20.50
2022-08-07T21:44:50.930Z,20.30
2022-08-07T21:50:03.593Z,20.20
2022-08-07T21:55:27.752Z,20.10
2022-08-07T22:00:32.068Z,19.90
2022-08-07T22:05:48.247Z,19.80
2022-08-07T22:10:58.274Z,19.60
2022-08-07T22:16:43.195Z,19.50
2022-08-07T22:22:05.214Z,19.40
2022-08-07T22:27:06.554Z,19.30
2022-08-07T22:32:29.780Z,19.20
2022-08-07T22:38:01.721Z,19.10
2022-08-07T22:43:12.487Z,19.00
2022-08-07T22:48:31.340Z,18.90
2022-08-07T22:54:07.001Z,18.80
2022-08-07T22:59:36.575Z,18.60
2022-08-07T23:04:58.555Z,18.50
2022-08-07T23:10:36.287Z,18.50
2022-08-07T23:16:06.618Z,18.40
2022-08-07T23:21:30.086Z,18.30
2022-08-07T23:26:58.896Z,18.20
2022-08-07T23:34:23.842Z,18.20
2022-08-07T23:38:01.278Z,18.10
2022-08-07T23:43:43.575Z,17.90
2022-08-07T23:49:42.323Z,17.80
2022-08-07T23:54:59.420Z,17.70
